Terminal Aerodrome Forecast
Issued by NWS Green Bay, WI

Home | Current Version | Previous Version | Graphics & Text | Print | Product List | Glossary On
Versions: 1 2 3 4 5 6 7 8 9 10 11 12 13 14 15 16 17 18
000
FTUS43 KGRB 231140
TAFGRB
TAF
KGRB 231140Z 2312/2412 VRB03KT P6SM FEW090
     FM231400 01004KT P6SM SCT120 BKN200
     FM232100 13007KT P6SM SCT080 BKN150
     FM240300 15005KT P6SM BKN060
     FM240500 16006KT P6SM SCT025 OVC040 WS020/21035KT
      TEMPO 2405/2409 1SM TSRA BKN025CB
     FM240900 19007KT P6SM SHRA OVC025 WS020/21035KT=

USA.gov is the U.S. government's official web portal to all federal, state and local government web resources and services.